createdAt,value
2018-02-27T00:00:37.550Z,1019.35
2018-02-27T00:01:37.542Z,1019.31
2018-02-27T00:02:37.543Z,1019.33
2018-02-27T00:03:37.676Z,1019.32
2018-02-27T00:04:37.540Z,1019.34
2018-02-27T00:05:37.571Z,1019.32
2018-02-27T00:06:37.641Z,1019.29
2018-02-27T00:07:37.571Z,1019.30
2018-02-27T00:08:37.549Z,1019.35
2018-02-27T00:09:37.570Z,1019.35
2018-02-27T00:10:37.547Z,1019.32
2018-02-27T00:11:37.586Z,1019.32
2018-02-27T00:12:37.544Z,1019.30
2018-02-27T00:13:37.549Z,1019.28
2018-02-27T00:14:37.557Z,1019.30
2018-02-27T00:15:37.551Z,1019.31
2018-02-27T00:16:37.566Z,1019.30
2018-02-27T00:17:37.564Z,1019.29
2018-02-27T00:18:37.553Z,1019.30
2018-02-27T00:19:37.546Z,1019.28
2018-02-27T00:20:37.638Z,1019.30
2018-02-27T00:21:37.562Z,1019.33
2018-02-27T00:22:37.567Z,1019.32
2018-02-27T00:23:37.567Z,1019.29
2018-02-27T00:24:37.569Z,1019.30
2018-02-27T00:25:37.580Z,1019.29
2018-02-27T00:26:37.577Z,1019.29
2018-02-27T00:27:37.566Z,1019.27
2018-02-27T00:28:37.563Z,1019.26
2018-02-27T00:29:37.575Z,1019.23
2018-02-27T00:30:37.576Z,1019.24
2018-02-27T00:31:37.568Z,1019.23
2018-02-27T00:32:37.567Z,1019.25
2018-02-27T00:33:37.577Z,1019.25
2018-02-27T00:34:37.590Z,1019.25
2018-02-27T00:35:37.576Z,1019.21
2018-02-27T00:36:37.586Z,1019.21
2018-02-27T00:37:37.585Z,1019.21
2018-02-27T00:38:37.593Z,1019.21
2018-02-27T00:39:37.596Z,1019.22
2018-02-27T00:40:37.597Z,1019.22
2018-02-27T00:41:37.586Z,1019.19
2018-02-27T00:42:37.590Z,1019.21
2018-02-27T00:43:37.593Z,1019.17
2018-02-27T00:44:37.616Z,1019.20
2018-02-27T00:45:37.581Z,1019.21
2018-02-27T00:46:38.321Z,1019.21
2018-02-27T00:47:37.601Z,1019.18
2018-02-27T00:48:37.607Z,1019.19
2018-02-27T00:49:37.598Z,1019.19
2018-02-27T00:50:37.610Z,1019.20
2018-02-27T00:51:37.607Z,1019.20
2018-02-27T00:52:37.606Z,1019.18
2018-02-27T00:53:37.604Z,1019.12
2018-02-27T00:54:37.602Z,1019.17
2018-02-27T00:55:37.611Z,1019.14
2018-02-27T00:56:37.610Z,1019.10
2018-02-27T00:57:37.613Z,1019.11
2018-02-27T00:58:37.617Z,1019.12
2018-02-27T00:59:37.613Z,1019.10
2018-02-27T01:00:37.631Z,1019.12
2018-02-27T01:01:37.621Z,1019.08
2018-02-27T01:02:37.617Z,1019.06
2018-02-27T01:03:37.610Z,1019.09
2018-02-27T01:04:37.615Z,1019.07
2018-02-27T01:05:37.614Z,1019.00
2018-02-27T01:06:37.632Z,1019.06
2018-02-27T01:07:37.622Z,1019.02
2018-02-27T01:08:37.619Z,1019.01
2018-02-27T01:09:37.626Z,1019.04
2018-02-27T01:10:37.638Z,1018.99
2018-02-27T01:11:37.647Z,1019.03
2018-02-27T01:12:37.753Z,1019.03
2018-02-27T01:13:37.631Z,1019.03
2018-02-27T01:14:37.626Z,1018.98
2018-02-27T01:15:37.629Z,1019.01
2018-02-27T01:16:37.636Z,1019.03
2018-02-27T01:17:37.642Z,1019.07
2018-02-27T01:18:37.649Z,1019.06
2018-02-27T01:19:37.644Z,1019.08
2018-02-27T01:20:37.638Z,1019.03
2018-02-27T01:21:37.647Z,1019.02
2018-02-27T01:22:37.636Z,1019.01
2018-02-27T01:23:37.640Z,1019.04
2018-02-27T01:24:37.634Z,1019.04
2018-02-27T01:25:37.644Z,1019.02
2018-02-27T01:26:37.645Z,1018.97
2018-02-27T01:27:38.314Z,1019.01
2018-02-27T01:28:37.645Z,1018.97
2018-02-27T01:29:37.649Z,1018.96
2018-02-27T01:30:37.649Z,1018.99
2018-02-27T01:31:37.651Z,1018.91
2018-02-27T01:32:37.642Z,1018.95
2018-02-27T01:33:37.659Z,1018.93
2018-02-27T01:34:37.662Z,1018.96
2018-02-27T01:35:37.666Z,1018.90
2018-02-27T01:36:37.654Z,1018.91
2018-02-27T01:37:37.663Z,1018.91
2018-02-27T01:38:37.670Z,1018.89
2018-02-27T01:39:37.650Z,1018.86
2018-02-27T01:40:37.655Z,1018.78
2018-02-27T01:41:37.685Z,1018.79
2018-02-27T01:42:37.661Z,1018.83
2018-02-27T01:43:37.667Z,1018.73
2018-02-27T01:44:37.663Z,1018.77
2018-02-27T01:45:37.757Z,1018.76
2018-02-27T01:46:37.657Z,1018.76
2018-02-27T01:47:37.666Z,1018.80
2018-02-27T01:48:37.667Z,1018.75
2018-02-27T01:49:37.672Z,1018.70
2018-02-27T01:50:37.667Z,1018.70
2018-02-27T01:51:37.685Z,1018.68
2018-02-27T01:52:37.676Z,1018.66
2018-02-27T01:53:37.676Z,1018.71
2018-02-27T01:54:37.681Z,1018.64
2018-02-27T01:55:37.696Z,1018.69
2018-02-27T01:56:37.676Z,1018.69
2018-02-27T01:57:37.672Z,1018.66
2018-02-27T01:58:37.678Z,1018.67
2018-02-27T01:59:37.679Z,1018.67
2018-02-27T02:00:37.676Z,1018.66
2018-02-27T02:01:37.684Z,1018.71
2018-02-27T02:02:37.682Z,1018.65
2018-02-27T02:03:37.690Z,1018.70
2018-02-27T02:04:37.684Z,1018.70
2018-02-27T02:05:37.716Z,1018.68
2018-02-27T02:06:37.687Z,1018.67
2018-02-27T02:07:37.787Z,1018.64
2018-02-27T02:08:37.736Z,1018.62
2018-02-27T02:09:37.713Z,1018.56
2018-02-27T02:10:37.700Z,1018.61
2018-02-27T02:11:37.684Z,1018.58
2018-02-27T02:12:37.700Z,1018.60
2018-02-27T02:13:37.695Z,1018.48
2018-02-27T02:14:37.689Z,1018.48
2018-02-27T02:15:37.696Z,1018.49
2018-02-27T02:16:37.711Z,1018.49
2018-02-27T02:17:37.718Z,1018.46
2018-02-27T02:18:37.698Z,1018.48
2018-02-27T02:19:37.706Z,1018.44
2018-02-27T02:20:37.699Z,1018.46
2018-02-27T02:21:37.706Z,1018.42
2018-02-27T02:22:37.706Z,1018.41
2018-02-27T02:23:37.715Z,1018.41
2018-02-27T02:24:37.703Z,1018.42
2018-02-27T02:25:37.708Z,1018.42
2018-02-27T02:26:37.709Z,1018.37
2018-02-27T02:27:37.716Z,1018.36
2018-02-27T02:28:37.721Z,1018.34
2018-02-27T02:29:37.713Z,1018.38
2018-02-27T02:30:37.725Z,1018.34
2018-02-27T02:31:37.715Z,1018.33
2018-02-27T02:32:37.717Z,1018.30
2018-02-27T02:33:37.715Z,1018.30
2018-02-27T02:34:37.721Z,1018.29
2018-02-27T02:35:37.740Z,1018.28
2018-02-27T02:36:37.710Z,1018.24
2018-02-27T02:37:37.716Z,1018.21
2018-02-27T02:38:37.722Z,1018.22
2018-02-27T02:39:37.728Z,1018.23
2018-02-27T02:40:37.722Z,1018.21
2018-02-27T02:41:37.724Z,1018.20
2018-02-27T02:42:37.786Z,1018.23
2018-02-27T02:43:37.727Z,1018.26
2018-02-27T02:44:37.724Z,1018.23
2018-02-27T02:45:37.722Z,1018.20
2018-02-27T02:46:37.731Z,1018.25
2018-02-27T02:47:37.724Z,1018.18
2018-02-27T02:48:37.747Z,1018.21
2018-02-27T02:49:37.727Z,1018.17
2018-02-27T02:50:37.733Z,1018.21
2018-02-27T02:51:37.743Z,1018.16
2018-02-27T02:52:37.737Z,1018.14
2018-02-27T02:53:37.728Z,1018.15
2018-02-27T02:54:37.737Z,1018.14
2018-02-27T02:55:37.737Z,1018.07
2018-02-27T02:56:37.748Z,1018.12
2018-02-27T02:57:37.733Z,1018.14
2018-02-27T02:58:37.748Z,1018.12
2018-02-27T02:59:37.738Z,1018.07
2018-02-27T03:00:37.789Z,1018.11
2018-02-27T03:01:37.738Z,1018.11
2018-02-27T03:02:37.736Z,1018.10
2018-02-27T03:03:37.743Z,1018.08
2018-02-27T03:04:37.746Z,1018.12
2018-02-27T03:05:37.745Z,1018.11
2018-02-27T03:06:37.743Z,1018.12
2018-02-27T03:07:37.758Z,1018.12
2018-02-27T03:08:37.822Z,1018.11
2018-02-27T03:09:37.748Z,1018.06
2018-02-27T03:10:37.748Z,1018.09
2018-02-27T03:11:37.745Z,1018.03
2018-02-27T03:12:37.754Z,1018.03
2018-02-27T03:13:37.753Z,1018.02
2018-02-27T03:14:37.754Z,1017.98
2018-02-27T03:15:37.751Z,1017.96
2018-02-27T03:16:37.751Z,1017.92
2018-02-27T03:17:37.793Z,1017.93
2018-02-27T03:18:37.756Z,1017.92
2018-02-27T03:19:37.751Z,1017.92
2018-02-27T03:20:37.755Z,1017.88
2018-02-27T03:21:37.759Z,1017.91
2018-02-27T03:22:37.755Z,1017.93
2018-02-27T03:23:37.753Z,1017.89
2018-02-27T03:24:37.755Z,1017.93
2018-02-27T03:25:37.755Z,1017.90
2018-02-27T03:26:37.882Z,1017.84
2018-02-27T03:27:37.770Z,1017.86
2018-02-27T03:28:37.764Z,1017.82
2018-02-27T03:29:37.762Z,1017.84
2018-02-27T03:30:37.766Z,1017.84
2018-02-27T03:31:37.773Z,1017.81
2018-02-27T03:32:37.762Z,1017.82
2018-02-27T03:33:37.763Z,1017.83
2018-02-27T03:34:37.764Z,1017.85
2018-02-27T03:35:37.770Z,1017.84
2018-02-27T03:36:37.763Z,1017.86
2018-02-27T03:37:37.763Z,1017.87
2018-02-27T03:38:37.763Z,1017.80
2018-02-27T03:39:37.781Z,1017.83
2018-02-27T03:40:37.769Z,1017.84
2018-02-27T03:41:37.771Z,1017.82
2018-02-27T03:42:37.773Z,1017.82
2018-02-27T03:43:37.779Z,1017.77
2018-02-27T03:44:37.771Z,1017.80
2018-02-27T03:45:37.778Z,1017.82
2018-02-27T03:46:37.773Z,1017.76
2018-02-27T03:47:37.774Z,1017.78
2018-02-27T03:48:37.762Z,1017.77
2018-02-27T03:49:37.765Z,1017.75
2018-02-27T03:50:37.776Z,1017.74
2018-02-27T03:51:37.778Z,1017.74
2018-02-27T03:52:37.793Z,1017.79
2018-02-27T03:53:37.792Z,1017.75
2018-02-27T03:54:37.779Z,1017.72
2018-02-27T03:55:37.786Z,1017.68
2018-02-27T03:56:37.776Z,1017.72
2018-02-27T03:57:37.786Z,1017.70
2018-02-27T03:58:37.784Z,1017.69
2018-02-27T03:59:37.788Z,1017.69
2018-02-27T04:00:37.778Z,1017.69
2018-02-27T04:01:37.788Z,1017.71
2018-02-27T04:02:37.781Z,1017.66
2018-02-27T04:03:37.780Z,1017.71
2018-02-27T04:04:37.787Z,1017.67
2018-02-27T04:05:37.780Z,1017.68
2018-02-27T04:06:37.785Z,1017.67
2018-02-27T04:07:37.786Z,1017.67
2018-02-27T04:08:37.784Z,1017.66
2018-02-27T04:09:37.786Z,1017.66
2018-02-27T04:10:37.789Z,1017.66
2018-02-27T04:11:37.795Z,1017.67
2018-02-27T04:12:37.806Z,1017.65
2018-02-27T04:13:37.789Z,1017.63
2018-02-27T04:14:37.786Z,1017.61
2018-02-27T04:15:37.789Z,1017.64
2018-02-27T04:16:37.786Z,1017.60
2018-02-27T04:17:37.865Z,1017.60
2018-02-27T04:18:37.796Z,1017.65
2018-02-27T04:19:37.784Z,1017.66
2018-02-27T04:20:37.819Z,1017.62
2018-02-27T04:21:37.796Z,1017.64
2018-02-27T04:22:37.806Z,1017.65
2018-02-27T04:23:37.794Z,1017.66
2018-02-27T04:24:37.797Z,1017.63
2018-02-27T04:25:37.790Z,1017.62
2018-02-27T04:26:37.805Z,1017.64
2018-02-27T04:27:37.799Z,1017.62
2018-02-27T04:28:37.795Z,1017.61
2018-02-27T04:29:37.791Z,1017.59
2018-02-27T04:30:37.798Z,1017.60
2018-02-27T04:31:37.802Z,1017.57
2018-02-27T04:32:37.801Z,1017.57
2018-02-27T04:33:37.795Z,1017.60
2018-02-27T04:34:37.802Z,1017.58
2018-02-27T04:35:37.797Z,1017.60
2018-02-27T04:36:37.800Z,1017.58
2018-02-27T04:37:37.807Z,1017.57
2018-02-27T04:38:37.813Z,1017.59
2018-02-27T04:39:37.796Z,1017.55
2018-02-27T04:40:37.795Z,1017.61
2018-02-27T04:41:37.800Z,1017.59
2018-02-27T04:42:37.805Z,1017.57
2018-02-27T04:43:37.802Z,1017.61
2018-02-27T04:44:37.800Z,1017.60
2018-02-27T04:45:37.800Z,1017.61
2018-02-27T04:46:37.794Z,1017.64
2018-02-27T04:47:37.796Z,1017.67
2018-02-27T04:48:37.815Z,1017.63
2018-02-27T04:49:37.811Z,1017.66
2018-02-27T04:50:37.823Z,1017.66
2018-02-27T04:51:37.829Z,1017.65
2018-02-27T04:52:37.806Z,1017.66
2018-02-27T04:53:37.820Z,1017.66
2018-02-27T04:54:37.808Z,1017.65
2018-02-27T04:55:37.805Z,1017.68
2018-02-27T04:56:37.813Z,1017.65
2018-02-27T04:57:37.806Z,1017.62
2018-02-27T04:58:37.810Z,1017.64
2018-02-27T04:59:37.816Z,1017.65
2018-02-27T05:00:37.819Z,1017.66
2018-02-27T05:01:37.810Z,1017.68
2018-02-27T05:02:37.819Z,1017.64
2018-02-27T05:03:37.847Z,1017.66
2018-02-27T05:04:37.803Z,1017.65
2018-02-27T05:05:37.824Z,1017.64
2018-02-27T05:06:37.818Z,1017.62
2018-02-27T05:07:37.823Z,1017.64
2018-02-27T05:08:37.813Z,1017.65
2018-02-27T05:09:37.822Z,1017.63
2018-02-27T05:10:37.829Z,1017.63
2018-02-27T05:11:37.810Z,1017.64
2018-02-27T05:12:37.816Z,1017.66
2018-02-27T05:13:37.843Z,1017.60
2018-02-27T05:14:37.817Z,1017.62
2018-02-27T05:15:37.818Z,1017.64
2018-02-27T05:16:37.821Z,1017.64
2018-02-27T05:17:37.817Z,1017.62
2018-02-27T05:18:37.816Z,1017.62
2018-02-27T05:19:37.832Z,1017.65
2018-02-27T05:20:37.904Z,1017.64
2018-02-27T05:21:37.830Z,1017.65
2018-02-27T05:22:37.821Z,1017.67
2018-02-27T05:23:37.832Z,1017.63
2018-02-27T05:24:37.817Z,1017.63
2018-02-27T05:25:37.847Z,1017.59
2018-02-27T05:26:37.834Z,1017.57
2018-02-27T05:27:37.825Z,1017.60
2018-02-27T05:28:37.830Z,1017.58
2018-02-27T05:29:37.810Z,1017.58
2018-02-27T05:30:37.825Z,1017.54
2018-02-27T05:31:37.829Z,1017.56
2018-02-27T05:32:37.822Z,1017.53
2018-02-27T05:33:38.788Z,1017.54
2018-02-27T05:34:37.860Z,1017.55
2018-02-27T05:35:37.824Z,1017.54
2018-02-27T05:36:37.837Z,1017.52
2018-02-27T05:37:37.822Z,1017.51
2018-02-27T05:38:37.841Z,1017.52
2018-02-27T05:39:37.839Z,1017.51
2018-02-27T05:40:37.842Z,1017.52
2018-02-27T05:41:37.829Z,1017.53
2018-02-27T05:42:37.858Z,1017.51
2018-02-27T05:43:37.825Z,1017.51
2018-02-27T05:44:37.814Z,1017.52
2018-02-27T05:45:37.821Z,1017.51
2018-02-27T05:46:37.825Z,1017.47
2018-02-27T05:47:37.829Z,1017.43
2018-02-27T05:48:37.822Z,1017.39
2018-02-27T05:49:37.824Z,1017.40
2018-02-27T05:50:37.832Z,1017.44
2018-02-27T05:51:37.923Z,1017.50
2018-02-27T05:52:37.820Z,1017.49
2018-02-27T05:53:37.827Z,1017.54
2018-02-27T05:54:37.832Z,1017.54
2018-02-27T05:55:37.826Z,1017.51
2018-02-27T05:56:37.832Z,1017.51
2018-02-27T05:57:37.831Z,1017.55
2018-02-27T05:58:37.834Z,1017.51
2018-02-27T05:59:37.849Z,1017.49
2018-02-27T06:00:37.861Z,1017.52
2018-02-27T06:01:37.830Z,1017.49
2018-02-27T06:02:37.879Z,1017.51
2018-02-27T06:03:37.823Z,1017.56
2018-02-27T06:04:37.930Z,1017.56
2018-02-27T06:05:37.828Z,1017.64
2018-02-27T06:06:37.845Z,1017.66
2018-02-27T06:07:37.843Z,1017.68
2018-02-27T06:08:37.832Z,1017.73
2018-02-27T06:09:37.834Z,1017.71
2018-02-27T06:10:37.853Z,1017.70
2018-02-27T06:11:37.972Z,1017.74
2018-02-27T06:12:37.836Z,1017.71
2018-02-27T06:13:37.851Z,1017.70
2018-02-27T06:14:37.848Z,1017.68
2018-02-27T06:15:37.835Z,1017.72
2018-02-27T06:16:37.832Z,1017.70
2018-02-27T06:17:37.911Z,1017.68
2018-02-27T06:18:37.868Z,1017.71
2018-02-27T06:19:37.839Z,1017.71
2018-02-27T06:20:37.842Z,1017.74
2018-02-27T06:21:37.852Z,1017.69
2018-02-27T06:22:37.824Z,1017.71
2018-02-27T06:23:37.838Z,1017.76
2018-02-27T06:24:37.874Z,1017.76
2018-02-27T06:25:37.834Z,1017.72
2018-02-27T06:26:37.854Z,1017.71
2018-02-27T06:27:37.846Z,1017.77
2018-02-27T06:28:37.851Z,1017.79
2018-02-27T06:29:37.834Z,1017.74
2018-02-27T06:30:37.867Z,1017.73
2018-02-27T06:31:37.844Z,1017.68
2018-02-27T06:32:37.894Z,1017.77
2018-02-27T06:33:37.851Z,1017.74
2018-02-27T06:34:37.843Z,1017.76
2018-02-27T06:35:37.842Z,1017.75
2018-02-27T06:36:37.877Z,1017.73
2018-02-27T06:37:37.850Z,1017.74
2018-02-27T06:38:37.851Z,1017.72
2018-02-27T06:39:37.860Z,1017.75
2018-02-27T06:40:37.866Z,1017.76
2018-02-27T06:41:37.845Z,1017.76
2018-02-27T06:42:37.850Z,1017.75
2018-02-27T06:43:37.859Z,1017.75
2018-02-27T06:44:37.844Z,1017.79
2018-02-27T06:45:37.850Z,1017.74
2018-02-27T06:46:37.847Z,1017.73
2018-02-27T06:47:37.841Z,1017.75
2018-02-27T06:48:37.946Z,1017.72
2018-02-27T06:49:37.851Z,1017.75
2018-02-27T06:50:37.858Z,1017.77
2018-02-27T06:51:37.848Z,1017.77
2018-02-27T06:52:37.866Z,1017.81
2018-02-27T06:53:37.852Z,1017.78
2018-02-27T06:54:37.861Z,1017.76
2018-02-27T06:55:37.847Z,1017.77
2018-02-27T06:56:37.851Z,1017.75
2018-02-27T06:57:37.853Z,1017.72
2018-02-27T06:58:37.864Z,1017.72
2018-02-27T06:59:37.861Z,1017.67
2018-02-27T07:00:37.849Z,1017.66
2018-02-27T07:01:37.909Z,1017.70
2018-02-27T07:02:37.858Z,1017.72
2018-02-27T07:03:37.851Z,1017.70
2018-02-27T07:04:37.852Z,1017.72
2018-02-27T07:05:37.858Z,1017.74
2018-02-27T07:06:37.868Z,1017.76
2018-02-27T07:07:37.855Z,1017.75
2018-02-27T07:08:37.857Z,1017.75
2018-02-27T07:09:37.875Z,1017.70
2018-02-27T07:10:37.871Z,1017.71
2018-02-27T07:11:37.865Z,1017.79
2018-02-27T07:12:37.889Z,1017.71
2018-02-27T07:13:37.987Z,1017.72
2018-02-27T07:14:37.944Z,1017.70
2018-02-27T07:15:37.869Z,1017.68
2018-02-27T07:16:37.864Z,1017.74
2018-02-27T07:17:37.871Z,1017.76
2018-02-27T07:18:37.867Z,1017.73
2018-02-27T07:19:37.933Z,1017.75
2018-02-27T07:20:37.865Z,1017.74
2018-02-27T07:21:37.874Z,1017.74
2018-02-27T07:22:37.877Z,1017.71
2018-02-27T07:23:37.868Z,1017.74
2018-02-27T07:24:37.888Z,1017.74
2018-02-27T07:25:37.878Z,1017.76
2018-02-27T07:26:37.879Z,1017.77
2018-02-27T07:27:37.895Z,1017.77
2018-02-27T07:28:37.880Z,1017.70
2018-02-27T07:29:37.890Z,1017.68
2018-02-27T07:30:37.889Z,1017.70
2018-02-27T07:31:37.904Z,1017.72
2018-02-27T07:32:37.885Z,1017.69
2018-02-27T07:33:37.886Z,1017.70
2018-02-27T07:34:37.882Z,1017.67
2018-02-27T07:35:37.931Z,1017.71
2018-02-27T07:36:37.909Z,1017.74
2018-02-27T07:37:37.903Z,1017.69
2018-02-27T07:38:37.901Z,1017.69
2018-02-27T07:39:37.886Z,1017.73
2018-02-27T07:40:37.889Z,1017.69
2018-02-27T07:41:37.888Z,1017.70
2018-02-27T07:42:37.901Z,1017.75
2018-02-27T07:43:37.911Z,1017.72
2018-02-27T07:44:37.901Z,1017.74
2018-02-27T07:45:37.906Z,1017.73
2018-02-27T07:46:37.912Z,1017.74
2018-02-27T07:47:37.915Z,1017.73
2018-02-27T07:48:37.909Z,1017.74
2018-02-27T07:49:37.911Z,1017.75
2018-02-27T07:50:37.909Z,1017.74
2018-02-27T07:51:37.930Z,1017.76
2018-02-27T07:52:37.944Z,1017.80
2018-02-27T07:53:37.912Z,1017.74
2018-02-27T07:54:37.971Z,1017.78
2018-02-27T07:55:37.929Z,1017.76
2018-02-27T07:56:37.926Z,1017.79
2018-02-27T07:57:37.913Z,1017.74
2018-02-27T07:58:37.928Z,1017.81
2018-02-27T07:59:37.909Z,1017.78
2018-02-27T08:00:37.916Z,1017.76
2018-02-27T08:01:37.920Z,1017.82
2018-02-27T08:02:37.926Z,1017.81
2018-02-27T08:03:37.979Z,1017.79
2018-02-27T08:04:37.931Z,1017.84
2018-02-27T08:05:37.936Z,1017.77
2018-02-27T08:06:37.946Z,1017.77
2018-02-27T08:07:37.946Z,1017.75
2018-02-27T08:08:37.966Z,1017.76
2018-02-27T08:09:37.972Z,1017.73
2018-02-27T08:10:37.954Z,1017.73
2018-02-27T08:11:37.953Z,1017.74
2018-02-27T08:12:37.964Z,1017.72
2018-02-27T08:13:37.976Z,1017.72
2018-02-27T08:14:37.973Z,1017.72
2018-02-27T08:15:37.982Z,1017.70
2018-02-27T08:16:37.998Z,1017.65
2018-02-27T08:17:37.982Z,1017.68
2018-02-27T08:18:37.989Z,1017.68
2018-02-27T08:19:37.999Z,1017.63
2018-02-27T08:20:37.998Z,1017.65
2018-02-27T08:21:37.989Z,1017.66
2018-02-27T08:22:38.000Z,1017.66
2018-02-27T08:23:38.010Z,1017.69
2018-02-27T08:24:38.022Z,1017.70
2018-02-27T08:25:38.011Z,1017.74
2018-02-27T08:26:38.037Z,1017.78
2018-02-27T08:27:38.027Z,1017.73
2018-02-27T08:28:38.096Z,1017.73
2018-02-27T08:29:38.059Z,1017.71
2018-02-27T08:30:38.034Z,1017.74
2018-02-27T08:31:38.040Z,1017.74
2018-02-27T08:32:38.043Z,1017.79
2018-02-27T08:33:38.045Z,1017.80
2018-02-27T08:34:38.055Z,1017.82
2018-02-27T08:35:38.117Z,1017.77
2018-02-27T08:36:38.068Z,1017.76
2018-02-27T08:37:38.087Z,1017.75
2018-02-27T08:38:38.081Z,1017.70
2018-02-27T08:39:38.110Z,1017.74
2018-02-27T08:40:38.113Z,1017.75
2018-02-27T08:41:38.113Z,1017.77
2018-02-27T08:42:38.117Z,1017.74
2018-02-27T08:43:38.124Z,1017.80
2018-02-27T08:44:38.132Z,1017.79
2018-02-27T08:45:38.149Z,1017.79
2018-02-27T08:46:38.176Z,1017.75
2018-02-27T08:47:38.166Z,1017.77
2018-02-27T08:48:38.180Z,1017.80
2018-02-27T08:49:38.191Z,1017.75
2018-02-27T08:50:38.189Z,1017.72
2018-02-27T08:51:38.195Z,1017.71
2018-02-27T08:52:38.224Z,1017.69
2018-02-27T08:53:38.214Z,1017.67
2018-02-27T08:54:38.235Z,1017.68
2018-02-27T08:55:38.237Z,1017.64
2018-02-27T08:56:38.266Z,1017.72
2018-02-27T08:57:38.298Z,1017.67
2018-02-27T08:58:38.269Z,1017.71
2018-02-27T08:59:38.391Z,1017.70
2018-02-27T09:00:38.288Z,1017.66
2018-02-27T09:01:38.298Z,1017.70
2018-02-27T09:02:38.310Z,1017.65
2018-02-27T09:03:38.348Z,1017.70
2018-02-27T09:04:38.334Z,1017.67
2018-02-27T09:05:38.377Z,1017.68
2018-02-27T09:06:38.362Z,1017.65
2018-02-27T09:07:38.388Z,1017.67
2018-02-27T09:08:38.382Z,1017.61
2018-02-27T09:09:38.393Z,1017.60
2018-02-27T09:10:38.412Z,1017.60
2018-02-27T09:11:38.427Z,1017.56
2018-02-27T09:12:38.429Z,1017.54
2018-02-27T09:13:38.438Z,1017.58
2018-02-27T09:14:39.314Z,1017.45
2018-02-27T09:15:38.471Z,1017.51
2018-02-27T09:16:38.494Z,1017.48
2018-02-27T09:17:38.493Z,1017.47
2018-02-27T09:18:38.503Z,1017.51
2018-02-27T09:19:38.527Z,1017.46
2018-02-27T09:20:38.538Z,1017.43
2018-02-27T09:21:38.546Z,1017.47
2018-02-27T09:22:38.652Z,1017.47
2018-02-27T09:23:38.566Z,1017.42
2018-02-27T09:24:38.663Z,1017.36
2018-02-27T09:25:38.583Z,1017.37
2018-02-27T09:26:38.602Z,1017.36
2018-02-27T09:27:38.616Z,1017.43
2018-02-27T09:28:38.626Z,1017.41
2018-02-27T09:29:38.662Z,1017.40
2018-02-27T09:30:38.638Z,1017.36
2018-02-27T09:31:38.705Z,1017.38
2018-02-27T09:32:38.676Z,1017.34
2018-02-27T09:33:38.676Z,1017.32
2018-02-27T09:34:39.288Z,1017.32
2018-02-27T09:35:38.700Z,1017.32
2018-02-27T09:36:38.713Z,1017.30
2018-02-27T09:37:38.723Z,1017.30
2018-02-27T09:38:38.728Z,1017.26
2018-02-27T09:39:38.744Z,1017.21
2018-02-27T09:40:38.768Z,1017.23
2018-02-27T09:41:38.765Z,1017.23
2018-02-27T09:42:38.774Z,1017.23
2018-02-27T09:43:38.784Z,1017.22
2018-02-27T09:44:38.795Z,1017.24
2018-02-27T09:45:38.845Z,1017.19
2018-02-27T09:46:38.823Z,1017.12
2018-02-27T09:47:38.830Z,1017.19
2018-02-27T09:48:38.832Z,1017.15
2018-02-27T09:49:38.840Z,1017.09
2018-02-27T09:50:38.847Z,1017.15
2018-02-27T09:51:38.858Z,1017.15
2018-02-27T09:52:38.866Z,1017.11
2018-02-27T09:53:38.877Z,1017.10
2018-02-27T09:54:38.882Z,1017.08
2018-02-27T09:55:38.886Z,1017.15
2018-02-27T09:56:38.898Z,1017.09
2018-02-27T09:57:38.909Z,1017.08
2018-02-27T09:58:38.941Z,1017.03
2018-02-27T09:59:38.918Z,1017.07
2018-02-27T10:00:38.926Z,1017.08
2018-02-27T10:01:38.934Z,1017.05
2018-02-27T10:02:39.012Z,1017.04
2018-02-27T10:03:38.954Z,1017.02
2018-02-27T10:04:38.956Z,1017.09
2018-02-27T10:05:38.958Z,1017.08
2018-02-27T10:06:38.973Z,1017.04
2018-02-27T10:07:38.984Z,1016.99
2018-02-27T10:08:38.986Z,1017.03
2018-02-27T10:09:39.039Z,1017.03
2018-02-27T10:10:39.031Z,1016.99
2018-02-27T10:11:38.997Z,1016.99
2018-02-27T10:12:39.164Z,1017.07
2018-02-27T10:14:39.060Z,1016.99
2018-02-27T10:15:39.028Z,1016.98
2018-02-27T10:16:39.023Z,1017.01
2018-02-27T10:17:39.136Z,1016.98
2018-02-27T10:18:39.056Z,1016.93
2018-02-27T10:19:39.059Z,1016.99
2018-02-27T10:20:39.063Z,1016.94
2018-02-27T10:21:39.073Z,1016.97
2018-02-27T10:22:39.077Z,1017.00
2018-02-27T10:23:39.083Z,1016.98
2018-02-27T10:24:39.089Z,1016.98
2018-02-27T10:25:39.095Z,1016.96
2018-02-27T10:26:39.112Z,1017.00
2018-02-27T10:27:39.142Z,1016.97
2018-02-27T10:28:39.121Z,1016.93
2018-02-27T10:29:39.124Z,1016.91
2018-02-27T10:30:39.200Z,1016.90
2018-02-27T10:31:39.153Z,1016.89
2018-02-27T10:32:39.149Z,1016.89
2018-02-27T10:33:39.186Z,1016.89
2018-02-27T10:34:39.189Z,1016.86
2018-02-27T10:35:39.164Z,1016.83
2018-02-27T10:36:39.178Z,1016.86
2018-02-27T10:37:39.179Z,1016.88
2018-02-27T10:38:39.194Z,1016.82
2018-02-27T10:39:39.195Z,1016.84
2018-02-27T10:40:39.249Z,1016.85
2018-02-27T10:41:39.210Z,1016.89
2018-02-27T10:42:39.221Z,1016.84
2018-02-27T10:43:39.226Z,1016.85
2018-02-27T10:44:39.233Z,1016.80
2018-02-27T10:45:39.224Z,1016.84
2018-02-27T10:46:39.251Z,1016.79
2018-02-27T10:47:39.265Z,1016.81
2018-02-27T10:48:39.282Z,1016.77
2018-02-27T10:49:39.262Z,1016.76
2018-02-27T10:50:39.276Z,1016.76
2018-02-27T10:51:39.273Z,1016.81
2018-02-27T10:52:39.280Z,1016.78
2018-02-27T10:53:39.318Z,1016.77
2018-02-27T10:54:39.302Z,1016.78
2018-02-27T10:55:39.314Z,1016.74
2018-02-27T10:56:39.315Z,1016.76
2018-02-27T10:57:39.325Z,1016.73
2018-02-27T10:58:39.325Z,1016.66
2018-02-27T10:59:39.327Z,1016.67
2018-02-27T11:00:39.334Z,1016.64
2018-02-27T11:01:39.333Z,1016.66
2018-02-27T11:02:39.379Z,1016.67
2018-02-27T11:03:39.488Z,1016.68
2018-02-27T11:04:39.396Z,1016.62
2018-02-27T11:05:39.362Z,1016.65
2018-02-27T11:06:39.371Z,1016.64
2018-02-27T11:07:39.409Z,1016.59
2018-02-27T11:08:39.373Z,1016.59
2018-02-27T11:09:39.385Z,1016.58
2018-02-27T11:10:39.386Z,1016.62
2018-02-27T11:11:39.398Z,1016.62
2018-02-27T11:12:39.451Z,1016.61
2018-02-27T11:13:39.422Z,1016.57
2018-02-27T11:14:39.424Z,1016.60
2018-02-27T11:15:39.423Z,1016.56
2018-02-27T11:16:39.473Z,1016.56
2018-02-27T11:17:39.433Z,1016.53
2018-02-27T11:18:39.434Z,1016.49
2018-02-27T11:19:39.446Z,1016.50
2018-02-27T11:20:39.442Z,1016.53
2018-02-27T11:21:39.477Z,1016.55
2018-02-27T11:22:39.463Z,1016.50
2018-02-27T11:23:39.523Z,1016.50
2018-02-27T11:24:39.510Z,1016.44
2018-02-27T11:25:39.512Z,1016.41
2018-02-27T11:26:39.527Z,1016.42
2018-02-27T11:27:39.478Z,1016.36
2018-02-27T11:28:39.514Z,1016.41
2018-02-27T11:29:39.490Z,1016.42
2018-02-27T11:30:39.496Z,1016.40
2018-02-27T11:31:39.506Z,1016.38
2018-02-27T11:32:39.544Z,1016.37
2018-02-27T11:33:39.517Z,1016.34
2018-02-27T11:34:39.519Z,1016.34
2018-02-27T11:35:39.533Z,1016.36
2018-02-27T11:36:39.539Z,1016.34
2018-02-27T11:37:39.617Z,1016.37
2018-02-27T11:38:39.538Z,1016.33
2018-02-27T11:39:39.592Z,1016.32
2018-02-27T11:40:39.550Z,1016.31
2018-02-27T11:41:39.573Z,1016.36
2018-02-27T11:42:39.606Z,1016.32
2018-02-27T11:43:39.559Z,1016.31
2018-02-27T11:44:39.581Z,1016.32
2018-02-27T11:45:39.575Z,1016.27
2018-02-27T11:46:39.588Z,1016.27
2018-02-27T11:47:39.653Z,1016.25
2018-02-27T11:48:39.606Z,1016.22
2018-02-27T11:49:39.601Z,1016.24
2018-02-27T11:50:39.598Z,1016.21
2018-02-27T11:51:39.617Z,1016.23
2018-02-27T11:52:39.609Z,1016.21
2018-02-27T11:53:39.628Z,1016.18
2018-02-27T11:54:39.617Z,1016.15
2018-02-27T11:55:39.635Z,1016.20
2018-02-27T11:56:39.668Z,1016.16
2018-02-27T11:57:39.639Z,1016.17
2018-02-27T11:58:39.647Z,1016.18
2018-02-27T11:59:39.666Z,1016.23
2018-02-27T12:00:39.671Z,1016.16
2018-02-27T12:01:39.681Z,1016.18
2018-02-27T12:02:39.669Z,1016.23
2018-02-27T12:03:39.683Z,1016.21
2018-02-27T12:04:39.676Z,1016.17
2018-02-27T12:05:39.711Z,1016.14
2018-02-27T12:06:39.705Z,1016.14